createdAt,value
2017-12-08T00:01:11.039Z,73.40
2017-12-08T00:03:37.271Z,72.80
2017-12-08T00:06:03.546Z,72.80
2017-12-08T00:08:30.521Z,73.40
2017-12-08T00:10:56.760Z,73.40
2017-12-08T00:13:23.015Z,74.20
2017-12-08T00:15:49.273Z,74.10
2017-12-08T00:18:16.207Z,74.60
2017-12-08T00:20:43.172Z,75.80
2017-12-08T00:23:09.433Z,75.80
2017-12-08T00:25:35.653Z,76.20
2017-12-08T00:28:01.953Z,76.50
2017-12-08T00:30:28.257Z,78.20
2017-12-08T00:32:55.225Z,79.30
2017-12-08T00:35:22.248Z,78.40
2017-12-08T00:37:49.214Z,79.00
2017-12-08T00:40:16.172Z,79.40
2017-12-08T00:42:42.431Z,79.30
2017-12-08T00:45:08.683Z,79.80
2017-12-08T00:47:35.678Z,80.40
2017-12-08T00:50:01.926Z,80.40
2017-12-08T00:52:28.129Z,80.10
2017-12-08T00:54:55.069Z,80.10
2017-12-08T00:57:22.094Z,80.70
2017-12-08T00:59:48.369Z,80.70
2017-12-08T01:02:14.621Z,80.70
2017-12-08T01:04:40.857Z,80.80
2017-12-08T01:07:07.177Z,81.20
2017-12-08T01:09:33.473Z,81.00
2017-12-08T01:11:59.664Z,80.80
2017-12-08T01:22:03.072Z,82.10
2017-12-08T01:24:29.279Z,82.20
2017-12-08T01:26:55.520Z,82.10
2017-12-08T01:29:21.718Z,82.90
2017-12-08T01:31:48.639Z,82.40
2017-12-08T01:34:14.917Z,82.40
2017-12-08T01:36:41.114Z,82.20
2017-12-08T01:39:08.070Z,83.00
2017-12-08T01:41:35.041Z,83.10
2017-12-08T01:44:01.245Z,83.10
2017-12-08T01:46:28.207Z,83.50
2017-12-08T01:48:54.489Z,83.50
2017-12-08T01:51:21.498Z,83.90
2017-12-08T01:53:47.779Z,83.90
2017-12-08T01:56:14.816Z,84.60
2017-12-08T01:58:41.125Z,84.60
2017-12-08T02:01:07.405Z,85.90
2017-12-08T02:03:33.862Z,85.00
2017-12-08T02:06:00.161Z,85.60
2017-12-08T02:08:27.239Z,85.80
2017-12-08T02:10:53.570Z,85.80
2017-12-08T02:13:19.855Z,85.40
2017-12-08T02:15:46.897Z,86.00
2017-12-08T02:18:13.943Z,87.00
2017-12-08T02:20:40.280Z,86.00
2017-12-08T02:23:07.362Z,86.40
2017-12-08T02:25:33.710Z,86.50
2017-12-08T02:28:00.054Z,86.90
2017-12-08T02:30:26.382Z,87.00
2017-12-08T02:32:52.731Z,87.70
2017-12-08T02:35:19.020Z,87.90
2017-12-08T02:37:45.311Z,88.30
2017-12-08T02:40:12.392Z,88.30
2017-12-08T02:42:38.708Z,88.40
2017-12-08T02:45:04.978Z,88.20
2017-12-08T02:47:31.308Z,88.70
2017-12-08T02:49:57.635Z,88.70
2017-12-08T02:52:24.064Z,89.60
2017-12-08T02:54:51.420Z,89.50
2017-12-08T02:57:17.678Z,89.50
2017-12-08T02:59:44.771Z,89.70
2017-12-08T03:02:11.070Z,89.70
2017-12-08T03:04:37.387Z,89.70
2017-12-08T03:07:04.403Z,90.00
2017-12-08T03:09:30.718Z,90.00
2017-12-08T03:11:57.019Z,90.10
2017-12-08T03:14:24.152Z,90.20
2017-12-08T03:16:50.441Z,90.20
2017-12-08T03:19:16.716Z,90.50
2017-12-08T03:21:43.066Z,90.60
2017-12-08T03:24:10.099Z,91.00
2017-12-08T03:26:37.167Z,91.00
2017-12-08T03:29:03.476Z,91.00
2017-12-08T03:31:29.811Z,91.20
2017-12-08T03:33:56.851Z,91.30
2017-12-08T03:36:23.153Z,91.30
2017-12-08T03:38:49.463Z,91.90
2017-12-08T03:41:15.762Z,91.60
2017-12-08T03:43:42.816Z,91.80
2017-12-08T03:46:09.063Z,91.80
2017-12-08T03:48:35.371Z,91.80
2017-12-08T03:51:02.448Z,92.00
2017-12-08T03:53:28.779Z,92.00
2017-12-08T03:55:55.091Z,92.10
2017-12-08T03:58:21.407Z,92.20
2017-12-08T04:00:48.395Z,92.40
2017-12-08T04:03:14.730Z,92.40
2017-12-08T04:05:41.062Z,92.50
2017-12-08T04:08:07.355Z,92.40
2017-12-08T04:10:33.655Z,92.40
2017-12-08T04:12:59.967Z,92.60
2017-12-08T04:15:26.302Z,92.30
2017-12-08T04:17:52.619Z,92.90
2017-12-08T04:20:18.984Z,92.70
2017-12-08T04:22:45.262Z,92.50
2017-12-08T04:25:11.600Z,92.50
2017-12-08T04:27:37.898Z,92.40
2017-12-08T04:30:04.252Z,92.40
2017-12-08T04:32:30.574Z,92.30
2017-12-08T04:34:56.909Z,92.50
2017-12-08T04:37:23.217Z,92.40
2017-12-08T04:39:49.506Z,92.30
2017-12-08T04:42:16.631Z,92.40
2017-12-08T04:44:42.970Z,92.40
2017-12-08T04:47:09.285Z,92.40
2017-12-08T04:49:35.656Z,92.30
2017-12-08T04:52:02.666Z,91.90
2017-12-08T04:54:29.011Z,91.90
2017-12-08T04:56:55.323Z,91.80
2017-12-08T04:59:21.686Z,91.70
2017-12-08T05:01:47.958Z,91.80
2017-12-08T05:04:14.268Z,91.70
2017-12-08T05:06:41.325Z,91.50
2017-12-08T05:09:08.372Z,91.40
2017-12-08T05:11:35.487Z,91.70
2017-12-08T05:14:01.806Z,91.70
2017-12-08T05:16:28.164Z,91.30
2017-12-08T05:18:55.238Z,91.40
2017-12-08T05:21:22.268Z,91.50
2017-12-08T05:23:48.573Z,91.50
2017-12-08T05:26:14.882Z,91.50
2017-12-08T05:28:41.141Z,91.60
2017-12-08T05:31:08.232Z,91.40
2017-12-08T05:33:51.254Z,91.40
2017-12-08T05:36:17.673Z,91.20
2017-12-08T05:38:44.699Z,91.30
2017-12-08T05:41:11.022Z,91.20
2017-12-08T05:43:37.376Z,91.40
2017-12-08T05:46:04.412Z,89.30
2017-12-08T05:48:30.752Z,89.30
2017-12-08T05:50:57.811Z,87.90
2017-12-08T05:53:24.879Z,87.50
2017-12-08T05:55:51.191Z,87.50
2017-12-08T05:58:17.523Z,87.20
2017-12-08T06:00:44.566Z,86.70
2017-12-08T06:03:11.650Z,85.50
2017-12-08T06:05:37.991Z,85.50
2017-12-08T06:08:04.329Z,85.00
2017-12-08T06:10:30.655Z,85.90
2017-12-08T06:12:56.987Z,85.40
2017-12-08T06:15:23.315Z,84.20
2017-12-08T06:17:49.630Z,84.50
2017-12-08T06:20:15.947Z,83.90
2017-12-08T06:22:42.263Z,84.10
2017-12-08T06:25:09.302Z,84.20
2017-12-08T06:27:36.363Z,83.40
2017-12-08T06:30:02.712Z,83.30
2017-12-08T06:32:29.047Z,83.90
2017-12-08T06:34:55.359Z,84.30
2017-12-08T06:37:21.671Z,83.80
2017-12-08T06:39:48.765Z,84.50
2017-12-08T06:42:15.073Z,84.50
2017-12-08T06:44:41.386Z,84.70
2017-12-08T06:47:08.410Z,84.60
2017-12-08T06:49:34.755Z,84.50
2017-12-08T06:52:01.832Z,84.90
2017-12-08T06:54:28.168Z,84.80
2017-12-08T06:56:54.528Z,84.90
2017-12-08T06:59:20.822Z,84.70
2017-12-08T07:01:47.118Z,85.50
2017-12-08T07:04:14.158Z,85.50
2017-12-08T07:06:40.448Z,85.40
2017-12-08T07:09:06.804Z,85.50
2017-12-08T07:11:33.114Z,86.00
2017-12-08T07:13:59.471Z,86.20
2017-12-08T07:16:25.807Z,86.30
2017-12-08T07:18:52.120Z,85.70
2017-12-08T07:21:18.468Z,86.30
2017-12-08T07:23:45.537Z,85.50
2017-12-08T07:26:12.588Z,85.70
2017-12-08T07:28:39.639Z,84.70
2017-12-08T07:31:06.704Z,84.80
2017-12-08T07:33:32.990Z,84.70
2017-12-08T07:35:59.290Z,84.30
2017-12-08T07:38:25.627Z,84.70
2017-12-08T07:40:51.925Z,84.20
2017-12-08T07:43:18.309Z,84.40
2017-12-08T07:45:44.903Z,84.70
2017-12-08T07:48:11.203Z,84.90
2017-12-08T07:50:38.306Z,86.40
2017-12-08T07:53:04.602Z,85.70
2017-12-08T07:55:30.883Z,85.60
2017-12-08T07:57:57.183Z,85.50
2017-12-08T08:00:23.437Z,85.40
2017-12-08T08:02:49.763Z,86.50
2017-12-08T08:05:16.038Z,85.60
2017-12-08T08:07:43.051Z,85.20
2017-12-08T08:10:09.735Z,85.20
2017-12-08T08:12:36.947Z,86.60
2017-12-08T08:15:03.291Z,85.60
2017-12-08T08:17:29.624Z,85.30
2017-12-08T08:19:56.676Z,85.80
2017-12-08T08:22:23.711Z,86.00
2017-12-08T08:24:50.750Z,85.30
2017-12-08T08:27:17.107Z,85.00
2017-12-08T08:29:44.214Z,84.70
2017-12-08T08:32:10.490Z,84.60
2017-12-08T08:34:37.564Z,84.70
2017-12-08T08:37:03.865Z,84.60
2017-12-08T08:39:30.930Z,86.40
2017-12-08T08:41:57.265Z,85.60
2017-12-08T08:44:23.592Z,85.10
2017-12-08T08:46:49.903Z,85.60
2017-12-08T08:49:16.251Z,85.00
2017-12-08T08:51:42.570Z,84.20
2017-12-08T08:54:09.581Z,84.90
2017-12-08T08:56:36.731Z,83.50
2017-12-08T08:59:03.095Z,83.60
2017-12-08T09:01:30.202Z,82.80
2017-12-08T09:03:56.565Z,82.80
2017-12-08T09:06:23.633Z,81.80
2017-12-08T09:08:51.008Z,81.80
2017-12-08T09:11:17.414Z,82.40
2017-12-08T09:13:44.443Z,82.40
2017-12-08T09:16:10.791Z,82.40
2017-12-08T09:18:37.868Z,71.90
2017-12-08T09:21:04.194Z,71.80
2017-12-08T09:23:30.590Z,70.00
2017-12-08T09:25:57.747Z,71.80
2017-12-08T09:28:24.847Z,67.10
2017-12-08T09:30:51.228Z,66.90
2017-12-08T09:33:18.330Z,63.20
2017-12-08T09:35:44.630Z,63.00
2017-12-08T09:38:10.924Z,63.10
2017-12-08T09:40:37.982Z,53.00
2017-12-08T09:43:05.075Z,46.40
2017-12-08T09:45:31.391Z,46.20
2017-12-08T09:47:57.725Z,43.90
2017-12-08T09:50:24.029Z,41.30
2017-12-08T09:52:51.078Z,47.10
2017-12-08T09:55:18.152Z,43.30
2017-12-08T09:57:44.489Z,43.30
2017-12-08T10:00:10.832Z,41.10
2017-12-08T10:02:37.134Z,47.30
2017-12-08T10:05:03.469Z,50.90
2017-12-08T10:07:29.827Z,49.70
2017-12-08T10:09:56.155Z,52.00
2017-12-08T10:12:22.414Z,53.10
2017-12-08T10:14:48.771Z,56.20
2017-12-08T10:17:15.855Z,47.50
2017-12-08T10:19:42.187Z,47.40
2017-12-08T10:22:08.541Z,45.60
2017-12-08T10:24:34.879Z,43.40
2017-12-08T10:27:01.202Z,45.80
2017-12-08T10:29:27.527Z,42.40
2017-12-08T10:31:53.875Z,42.90
2017-12-08T10:34:20.223Z,46.10
2017-12-08T10:36:47.329Z,47.80
2017-12-08T10:39:13.661Z,47.80
2017-12-08T10:41:40.064Z,48.40
2017-12-08T10:44:06.392Z,52.00
2017-12-08T10:46:32.727Z,52.50
2017-12-08T10:48:59.635Z,53.50
2017-12-08T10:51:26.802Z,54.80
2017-12-08T10:53:53.886Z,52.20
2017-12-08T10:56:20.262Z,52.20
2017-12-08T10:58:46.550Z,56.40
2017-12-08T11:01:12.814Z,49.70
2017-12-08T11:03:39.146Z,40.60
2017-12-08T11:06:05.477Z,42.10
2017-12-08T11:08:31.835Z,42.70
2017-12-08T11:10:58.982Z,46.10
2017-12-08T11:13:25.238Z,46.10
2017-12-08T11:15:51.610Z,46.00
2017-12-08T11:18:17.966Z,48.20
2017-12-08T11:20:45.027Z,52.90
2017-12-08T11:23:12.077Z,56.10
2017-12-08T11:25:38.411Z,56.80
2017-12-08T11:28:04.717Z,49.70
2017-12-08T11:30:31.039Z,51.20
2017-12-08T11:32:57.387Z,54.10
2017-12-08T11:35:24.458Z,55.70
2017-12-08T11:37:50.791Z,55.60
2017-12-08T11:40:17.106Z,56.70
2017-12-08T11:42:44.174Z,54.90
2017-12-08T11:45:10.458Z,54.80
2017-12-08T11:47:36.793Z,56.40
2017-12-08T11:50:03.118Z,57.20
2017-12-08T11:52:29.431Z,56.20
2017-12-08T11:54:55.750Z,57.10
2017-12-08T11:57:22.027Z,56.90
2017-12-08T11:59:49.223Z,48.90
2017-12-08T12:02:15.526Z,48.90
2017-12-08T12:04:42.094Z,48.70
2017-12-08T12:07:08.526Z,43.90
2017-12-08T12:09:34.858Z,37.10
2017-12-08T12:12:01.199Z,37.40
2017-12-08T12:14:27.458Z,31.10
2017-12-08T12:16:53.735Z,31.40
2017-12-08T12:19:20.016Z,36.20
2017-12-08T12:21:47.029Z,39.70
2017-12-08T12:24:13.361Z,39.60
2017-12-08T12:26:39.651Z,43.90
2017-12-08T12:29:05.960Z,39.70
2017-12-08T12:31:32.995Z,34.60
2017-12-08T12:34:00.388Z,34.70
2017-12-08T12:36:26.675Z,31.50
2017-12-08T12:38:53.708Z,29.40
2017-12-08T12:41:19.978Z,29.40
2017-12-08T12:43:46.995Z,36.40
2017-12-08T12:46:13.311Z,36.30
2017-12-08T12:48:39.655Z,33.30
2017-12-08T12:51:06.071Z,32.20
2017-12-08T12:53:32.402Z,34.40
2017-12-08T12:55:58.741Z,34.60
2017-12-08T12:58:25.149Z,34.00
2017-12-08T13:00:51.503Z,32.90
2017-12-08T13:03:17.820Z,31.60
2017-12-08T13:05:44.135Z,32.10
2017-12-08T13:08:10.473Z,34.30
2017-12-08T13:10:36.796Z,35.40
2017-12-08T13:13:03.112Z,38.30
2017-12-08T13:15:29.421Z,40.20
2017-12-08T13:17:56.454Z,44.00
2017-12-08T13:20:22.764Z,43.90
2017-12-08T13:22:48.976Z,47.10
2017-12-08T13:25:15.227Z,47.10
2017-12-08T13:27:41.454Z,49.70
2017-12-08T13:30:07.677Z,51.10
2017-12-08T13:32:33.907Z,50.40
2017-12-08T13:35:00.117Z,51.60
2017-12-08T13:37:26.343Z,52.90
2017-12-08T13:39:52.547Z,53.40
2017-12-08T13:42:20.287Z,53.20
2017-12-08T13:44:46.490Z,53.20
2017-12-08T13:47:12.678Z,53.60
2017-12-08T13:49:38.866Z,55.50
2017-12-08T13:52:05.876Z,56.10
2017-12-08T13:54:44.590Z,56.20
2017-12-08T13:57:10.816Z,56.80
2017-12-08T13:59:37.023Z,55.30
2017-12-08T14:02:03.256Z,56.30
2017-12-08T14:04:29.530Z,58.10
2017-12-08T14:06:55.798Z,56.10
2017-12-08T14:09:22.743Z,60.00
2017-12-08T14:11:49.707Z,62.30
2017-12-08T14:14:15.920Z,62.30
2017-12-08T14:16:42.888Z,66.30
2017-12-08T14:19:09.165Z,66.20
2017-12-08T14:21:36.095Z,67.90
2017-12-08T14:24:02.251Z,67.90
2017-12-08T14:26:29.195Z,74.90
2017-12-08T14:28:56.175Z,74.80
2017-12-08T14:31:22.300Z,74.60
2017-12-08T14:33:48.530Z,78.30
2017-12-08T14:36:14.750Z,78.10
2017-12-08T14:38:40.994Z,80.20
2017-12-08T14:41:07.225Z,81.20
2017-12-08T14:43:33.454Z,82.30
2017-12-08T14:45:59.680Z,82.30
2017-12-08T14:48:25.851Z,84.50
2017-12-08T14:50:52.000Z,82.20
2017-12-08T14:53:18.165Z,81.50
2017-12-08T14:55:44.383Z,82.50
2017-12-08T14:58:10.564Z,80.00
2017-12-08T15:00:36.752Z,80.90
2017-12-08T15:03:03.193Z,81.20
2017-12-08T15:05:29.332Z,79.00
2017-12-08T15:07:55.553Z,81.80
2017-12-08T15:10:21.849Z,81.20
2017-12-08T15:12:48.111Z,79.80
2017-12-08T15:15:14.308Z,82.50
2017-12-08T15:17:40.509Z,81.50
2017-12-08T15:20:07.455Z,79.80
2017-12-08T15:22:34.347Z,81.80
2017-12-08T15:25:00.564Z,81.90
2017-12-08T15:27:26.755Z,82.10
2017-12-08T15:29:53.739Z,80.30
2017-12-08T15:32:20.008Z,80.30
2017-12-08T15:34:46.255Z,81.80
2017-12-08T15:37:12.540Z,81.10
2017-12-08T15:39:38.753Z,80.70
2017-12-08T15:42:04.935Z,82.50
2017-12-08T15:44:31.164Z,81.20
2017-12-08T15:46:58.117Z,80.40
2017-12-08T15:49:25.094Z,80.00
2017-12-08T15:51:51.308Z,79.70
2017-12-08T15:54:18.286Z,82.60
2017-12-08T15:56:44.500Z,82.50
2017-12-08T15:59:10.689Z,79.30
2017-12-08T16:01:36.911Z,80.90
2017-12-08T16:04:03.182Z,77.70
2017-12-08T16:06:29.418Z,80.70
2017-12-08T16:08:55.631Z,79.20
2017-12-08T16:11:21.863Z,77.90
2017-12-08T16:13:48.166Z,80.50
2017-12-08T16:16:15.130Z,76.90
2017-12-08T16:18:41.336Z,76.90
2017-12-08T16:21:07.614Z,77.80
2017-12-08T16:23:33.834Z,78.20
2017-12-08T16:26:00.109Z,77.50
2017-12-08T16:28:26.376Z,79.80
2017-12-08T16:30:52.663Z,76.00
2017-12-08T16:33:18.895Z,78.50
2017-12-08T16:35:45.138Z,77.80
2017-12-08T16:38:12.083Z,77.50
2017-12-08T16:40:39.062Z,78.30
2017-12-08T16:43:05.298Z,78.30
2017-12-08T16:45:31.544Z,76.80
2017-12-08T16:47:57.718Z,76.50
2017-12-08T16:50:23.951Z,78.30
2017-12-08T16:52:50.944Z,78.40
2017-12-08T16:55:17.799Z,76.90
2017-12-08T16:57:43.984Z,76.90
2017-12-08T17:00:10.148Z,78.30
2017-12-08T17:02:36.282Z,78.10
2017-12-08T17:05:02.495Z,76.40
2017-12-08T17:07:28.731Z,77.80
2017-12-08T17:09:54.918Z,76.70
2017-12-08T17:12:21.155Z,77.20
2017-12-08T17:14:47.372Z,77.20
2017-12-08T17:17:13.575Z,78.00
2017-12-08T17:19:40.480Z,78.30
2017-12-08T17:22:06.693Z,77.50
2017-12-08T17:24:32.913Z,78.70
2017-12-08T17:26:59.114Z,78.60
2017-12-08T17:29:26.152Z,79.70
2017-12-08T17:31:53.188Z,80.00
2017-12-08T17:34:20.103Z,80.50
2017-12-08T17:36:46.350Z,80.60
2017-12-08T17:39:12.616Z,80.10
2017-12-08T17:41:39.576Z,80.50
2017-12-08T17:44:05.792Z,80.50
2017-12-08T17:46:32.758Z,80.20
2017-12-08T17:48:58.887Z,80.20
2017-12-08T17:51:25.015Z,78.60
2017-12-08T17:53:51.199Z,79.50
2017-12-08T17:56:18.171Z,80.20
2017-12-08T17:58:44.406Z,79.80
2017-12-08T18:01:10.626Z,80.70
2017-12-08T18:03:37.650Z,79.90
2017-12-08T18:06:04.619Z,79.90
2017-12-08T18:08:31.622Z,79.20
2017-12-08T18:10:57.872Z,79.20
2017-12-08T18:13:24.824Z,78.70
2017-12-08T18:15:51.828Z,79.30
2017-12-08T18:18:18.063Z,79.30
2017-12-08T18:20:44.254Z,80.60
2017-12-08T18:23:10.494Z,80.50
2017-12-08T18:25:36.656Z,80.10
2017-12-08T18:28:02.889Z,81.00
2017-12-08T18:30:29.172Z,79.60
2017-12-08T18:35:48.448Z,80.10
2017-12-08T18:38:14.620Z,79.70
2017-12-08T18:40:40.837Z,80.70
2017-12-08T18:43:07.050Z,80.70
2017-12-08T18:45:34.083Z,81.40
2017-12-08T18:48:00.302Z,81.40
2017-12-08T18:50:27.251Z,82.50
2017-12-08T18:52:53.420Z,82.50
2017-12-08T18:55:19.627Z,80.40
2017-12-08T18:57:46.600Z,81.60
2017-12-08T19:00:12.906Z,81.60
2017-12-08T19:02:39.104Z,80.40
2017-12-08T19:05:05.358Z,81.40
2017-12-08T19:07:32.310Z,81.20
2017-12-08T19:09:58.492Z,81.20
2017-12-08T19:12:24.718Z,81.20
2017-12-08T19:14:50.916Z,81.60
2017-12-08T19:17:17.078Z,80.90
2017-12-08T19:19:43.342Z,81.40
2017-12-08T19:22:10.322Z,81.60
2017-12-08T19:24:37.248Z,82.80
2017-12-08T19:27:04.249Z,81.60
2017-12-08T19:29:30.458Z,81.60
2017-12-08T19:31:56.691Z,82.00
2017-12-08T19:34:22.911Z,83.40
2017-12-08T19:36:49.240Z,81.30
2017-12-08T19:39:15.431Z,81.60
2017-12-08T19:41:49.405Z,82.60
2017-12-08T19:44:15.586Z,82.60
2017-12-08T19:46:41.786Z,82.10
2017-12-08T19:49:08.816Z,82.00
2017-12-08T19:51:35.026Z,82.00
2017-12-08T19:54:01.263Z,80.20
2017-12-08T19:56:27.532Z,81.80
2017-12-08T19:58:53.711Z,81.40
2017-12-08T20:01:19.912Z,82.40
2017-12-08T20:03:46.154Z,82.40
2017-12-08T20:06:12.406Z,82.50
2017-12-08T20:08:38.550Z,83.10
2017-12-08T20:11:04.759Z,82.40
2017-12-08T20:13:30.979Z,82.40
2017-12-08T20:15:57.187Z,81.60
2017-12-08T20:18:23.451Z,81.70
2017-12-08T20:20:49.705Z,83.30
2017-12-08T20:23:16.722Z,82.50
2017-12-08T20:25:42.920Z,82.50
2017-12-08T20:28:09.098Z,80.60
2017-12-08T20:30:36.037Z,82.30
2017-12-08T20:33:02.245Z,82.30
2017-12-08T20:35:29.476Z,81.70
2017-12-08T20:37:55.716Z,81.20
2017-12-08T20:40:22.945Z,81.90
2017-12-08T20:42:49.195Z,81.50
2017-12-08T20:45:15.457Z,81.10
2017-12-08T20:47:42.410Z,80.10
2017-12-08T20:50:09.339Z,79.20
2017-12-08T20:52:36.269Z,80.20
2017-12-08T20:55:04.406Z,79.70
2017-12-08T20:57:33.945Z,80.70
2017-12-08T21:00:00.110Z,79.40
2017-12-08T21:02:27.044Z,80.60
2017-12-08T21:04:53.215Z,80.50
2017-12-08T21:07:19.377Z,81.30
2017-12-08T21:09:45.565Z,80.30
2017-12-08T21:12:11.810Z,80.90
2017-12-08T21:14:37.982Z,81.30
2017-12-08T21:17:04.247Z,81.60
2017-12-08T21:19:30.453Z,82.10
2017-12-08T21:21:57.359Z,80.80
2017-12-08T21:24:23.559Z,80.80
2017-12-08T21:26:49.811Z,81.50
2017-12-08T21:29:16.063Z,81.30
2017-12-08T21:31:42.964Z,82.00
2017-12-08T21:34:09.168Z,81.30
2017-12-08T21:36:35.323Z,82.40
2017-12-08T21:39:01.575Z,81.80
2017-12-08T21:41:28.551Z,79.70
2017-12-08T21:43:55.545Z,81.50
2017-12-08T21:46:21.723Z,81.50
2017-12-08T21:48:48.652Z,80.80
2017-12-08T21:51:15.600Z,80.30
2017-12-08T21:53:42.540Z,80.40
2017-12-08T21:56:09.787Z,79.70
2017-12-08T21:58:35.991Z,79.70
2017-12-08T22:01:02.190Z,79.70
2017-12-08T22:03:28.450Z,78.90
2017-12-08T22:05:54.695Z,80.00
2017-12-08T22:08:20.867Z,79.20
2017-12-08T22:10:47.167Z,79.60
2017-12-08T22:13:13.395Z,78.90
2017-12-08T22:15:39.654Z,78.00
2017-12-08T22:18:05.823Z,79.10
2017-12-08T22:20:32.036Z,78.60
2017-12-08T22:22:58.211Z,78.80
2017-12-08T22:25:25.167Z,79.20
2017-12-08T22:27:52.100Z,78.00
2017-12-08T22:30:19.062Z,78.40
2017-12-08T22:32:46.018Z,77.80
2017-12-08T22:35:12.242Z,77.80
2017-12-08T22:37:38.459Z,79.30
2017-12-08T22:40:05.417Z,78.30
2017-12-08T22:42:32.402Z,78.50
2017-12-08T22:44:58.619Z,78.40
2017-12-08T22:47:24.758Z,78.10
2017-12-08T22:49:50.960Z,77.60
2017-12-08T22:52:17.167Z,78.00
2017-12-08T22:54:44.216Z,76.50
2017-12-08T22:57:11.166Z,78.10
2017-12-08T22:59:37.372Z,78.10
2017-12-08T23:02:04.311Z,78.00
2017-12-08T23:04:31.251Z,77.60
2017-12-08T23:06:57.446Z,77.60
2017-12-08T23:09:23.650Z,78.50
2017-12-08T23:11:49.815Z,78.20
2017-12-08T23:14:16.051Z,77.70
2017-12-08T23:16:43.061Z,78.20
2017-12-08T23:19:09.243Z,78.20
2017-12-08T23:21:36.134Z,77.50
2017-12-08T23:24:02.374Z,77.50
2017-12-08T23:26:28.567Z,78.00
2017-12-08T23:28:55.526Z,78.10
2017-12-08T23:31:21.788Z,78.10
2017-12-08T23:33:48.722Z,77.70
2017-12-08T23:36:14.932Z,77.80
2017-12-08T23:38:41.104Z,76.90
2017-12-08T23:41:07.276Z,76.60
2017-12-08T23:43:33.511Z,76.80
2017-12-08T23:45:59.728Z,77.00
2017-12-08T23:48:25.891Z,76.50
2017-12-08T23:50:52.069Z,76.80
2017-12-08T23:53:18.992Z,76.80
2017-12-08T23:55:52.208Z,76.80
2017-12-08T23:58:19.151Z,76.50
